Language: 


Des rapports , des résumés tant et plus, au choix de chacun....


Données statistiques de la station
Quotidien Rapport Avril 2, 2017 Unités:  Anglais    Métrique   les deux
« Précédent Jour
Suivant Jour »
Quotidien Hebdomadaire Mensuel Annuel Actuel
  Haut: Bas: Moyen:
Température: 68.4 °F 36.9 °F 51.4 °F
Pt de rosée: 53.4 °F 36 °F 43.9 °F
Humidité: 98 % 48 % 78 %
Vitesse du vent: 9.6 mph 0 mph 2.3 mph
Rafales: 10.7 mph - -
Vent:- - West
Pression: 30.2 in 29.9 in -
Précipitation: 0 in    
Historical Graphs
 
 
Données statistiques pour Avril 2, 2017
Heure Température Point de rosée Pression Vent Vitesse du vent Refales Humidité Pluie (taux horaire)
00:04 46 °F 40.6 °F 29.9 in Calm   1.6 mph 81 % 0 in
00:09 45.9 °F 40.3 °F 29.9 in Calm   1.6 mph 81 % 0 in
00:14 45.1 °F 39.7 °F 29.9 in Calm     81 % 0 in
00:19 45 °F 39.7 °F 29.9 in Calm     82 % 0 in
00:24 44.4 °F 39 °F 29.9 in Calm     81 % 0 in
00:29 44.2 °F 39.2 °F 29.9 in Calm     82 % 0 in
00:34 44.2 °F 39.6 °F 29.9 in Calm     83 % 0 in
00:39 44.2 °F 39.6 °F 29.9 in Calm     84 % 0 in
00:44 44.4 °F 40.3 °F 29.9 in WNW 1.6 mph 1.6 mph 85 % 0 in
00:49 45 °F 40.8 °F 29.9 in Calm   2.9 mph 86 % 0 in
00:54 44.8 °F 40.8 °F 29.9 in Calm   2.9 mph 86 % 0 in
00:59 44.4 °F 40.6 °F 29.9 in West 1.3 mph 1.6 mph 86 % 0 in
01:04 44.4 °F 40.6 °F 29.9 in WNW 1.1 mph 2.5 mph 86 % 0 in
01:09 44.2 °F 40.5 °F 29.9 in Calm   2.5 mph 86 % 0 in
01:14 43.9 °F 39.9 °F 29.9 in Calm   1.3 mph 86 % 0 in
01:19 43.5 °F 39.6 °F 29.9 in Calm     86 % 0 in
01:24 43.2 °F 39.2 °F 29.9 in Calm     86 % 0 in
01:29 43 °F 39 °F 29.9 in Calm     86 % 0 in
01:34 42.8 °F 39.2 °F 29.9 in Calm     87 % 0 in
01:39 42.8 °F 39.2 °F 29.9 in Calm     87 % 0 in
01:44 42.8 °F 39.2 °F 29.9 in Calm     87 % 0 in
01:49 42.6 °F 39.4 °F 29.9 in Calm   2.5 mph 88 % 0 in
01:55 42.6 °F 39.4 °F 29.9 in Calm   2.5 mph 88 % 0 in
02:00 42.8 °F 39.7 °F 29.9 in Calm   3.1 mph 89 % 0 in
02:05 42.8 °F 39.7 °F 29.9 in Calm   3.1 mph 89 % 0 in
02:10 42.4 °F 39.4 °F 29.9 in Calm     89 % 0 in
02:15 42.1 °F 39 °F 29.9 in Calm     89 % 0 in
02:20 41.5 °F 38.1 °F 29.9 in Calm     88 % 0 in
02:25 41.5 °F 38.1 °F 30 in Calm     88 % 0 in
02:30 41.5 °F 38.5 °F 30 in Calm     89 % 0 in
02:35 41.5 °F 38.8 °F 30 in Calm     90 % 0 in
02:40 41.7 °F 39.4 °F 30 in WNW 1.3 mph 2.5 mph 91 % 0 in
02:45 41.9 °F 39.7 °F 30 in WNW 1.1 mph 2.5 mph 92 % 0 in
02:50 42.1 °F 39.9 °F 30 in Calm   2.5 mph 92 % 0 in
02:55 41.9 °F 39.7 °F 30 in Calm   1.1 mph 92 % 0 in
03:00 41.5 °F 39 °F 30 in Calm     91 % 0 in
03:05 41.4 °F 38.8 °F 30 in Calm     91 % 0 in
03:10 41 °F 38.7 °F 30 in Calm     91 % 0 in
03:15 40.8 °F 38.5 °F 30 in Calm     91 % 0 in
03:20 40.8 °F 38.5 °F 30 in Calm     91 % 0 in
03:25 40.3 °F 37.9 °F 30 in Calm     91 % 0 in
03:30 40.1 °F 37.8 °F 30 in Calm     91 % 0 in
03:35 40.3 °F 38.1 °F 30 in Calm     92 % 0 in
03:40 40.3 °F 38.5 °F 30 in Calm     93 % 0 in
03:45 40.1 °F 38.3 °F 30 in Calm     93 % 0 in
03:50 40.1 °F 38.3 °F 30 in Calm     93 % 0 in
03:55 39.9 °F 38.1 °F 30 in WNW 2.2 mph 2.2 mph 93 % 0 in
04:00 39.7 °F 37.9 °F 30 in Calm   3.6 mph 93 % 0 in
04:05 39.9 °F 38.1 °F 30 in Calm   3.6 mph 93 % 0 in
04:10 39.6 °F 37.8 °F 30 in Calm     93 % 0 in
04:15 39.4 °F 37.6 °F 30 in Calm     93 % 0 in
04:20 39.2 °F 37.4 °F 30 in Calm   2 mph 93 % 0 in
04:25 39 °F 37.2 °F 30 in Calm   2 mph 93 % 0 in
04:30 38.7 °F 36.9 °F 30 in Calm     93 % 0 in
04:35 38.5 °F 36.7 °F 30 in Calm     93 % 0 in
04:40 38.5 °F 37 °F 30 in Calm     94 % 0 in
04:45 38.5 °F 36.9 °F 30 in Calm     94 % 0 in
04:50 38.1 °F 36.7 °F 30 in Calm     94 % 0 in
04:55 38.1 °F 36.7 °F 30 in West 1.3 mph 1.3 mph 94 % 0 in
05:00 38.5 °F 36.9 °F 30 in Calm   1.3 mph 94 % 0 in
05:05 38.1 °F 36.9 °F 30 in Calm     95 % 0 in
05:10 37.9 °F 36.7 °F 30 in Calm     95 % 0 in
05:15 37.9 °F 36.7 °F 30 in Calm     95 % 0 in
05:20 37.9 °F 36.7 °F 30 in Calm     95 % 0 in
05:25 37.8 °F 36.5 °F 30 in Calm     95 % 0 in
05:30 37.6 °F 36.3 °F 30 in Calm     95 % 0 in
05:35 37.8 °F 36.5 °F 30 in Calm     95 % 0 in
05:40 37.9 °F 37 °F 30 in Calm     96 % 0 in
05:45 37.9 °F 37 °F 30 in Calm     96 % 0 in
05:50 37.9 °F 37 °F 30 in Calm   2.7 mph 96 % 0 in
05:55 37.8 °F 36.9 °F 30 in Calm   2.7 mph 96 % 0 in
06:00 37.6 °F 36.3 °F 30 in Calm     95 % 0 in
06:05 37.6 °F 36.3 °F 30 in Calm     95 % 0 in
06:10 37.6 °F 36.3 °F 30 in Calm     96 % 0 in
06:15 37.6 °F 36.3 °F 30 in Calm     96 % 0 in
06:20 37.6 °F 36.3 °F 30 in Calm     96 % 0 in
06:25 37.2 °F 36.3 °F 30 in Calm     96 % 0 in
06:30 37.2 °F 36.3 °F 30 in Calm     96 % 0 in
06:35 37.2 °F 36.3 °F 30 in Calm     96 % 0 in
06:36 37.2 °F 36.3 °F 30 in Calm     96 % 0 in
06:41 37 °F 36.3 °F 30 in Calm     97 % 0 in
06:46 36.9 °F 36.1 °F 30 in Calm     97 % 0 in
06:51 36.9 °F 36.1 °F 30 in Calm     97 % 0 in
06:56 36.9 °F 36 °F 30 in Calm     97 % 0 in
07:01 36.9 °F 36.1 °F 30 in Calm     97 % 0 in
07:06 36.9 °F 36.1 °F 30 in Calm   2.5 mph 97 % 0 in
07:11 37.2 °F 36.5 °F 30 in Calm   2.5 mph 97 % 0 in
07:16 37.2 °F 36.5 °F 30 in Calm   1.6 mph 97 % 0 in
07:21 37.2 °F 36.5 °F 30 in Calm     97 % 0 in
07:26 37.2 °F 36.5 °F 30 in Calm     97 % 0 in
07:31 37 °F 36.7 °F 30 in Calm     98 % 0 in
07:37 36.9 °F 36.1 °F 30 in Calm     97 % 0 in
07:42 36.9 °F 36.1 °F 30 in Calm     97 % 0 in
07:47 36.9 °F 36.3 °F 30 in Calm     98 % 0 in
07:52 36.9 °F 36.3 °F 30 in Calm     98 % 0 in
07:57 37.2 °F 36.9 °F 30 in Calm     98 % 0 in
08:02 37.6 °F 37 °F 30 in Calm     98 % 0 in
08:07 37.9 °F 37.6 °F 30 in Calm     98 % 0 in
08:12 38.7 °F 38.1 °F 30 in Calm     98 % 0 in
08:17 39.9 °F 39.4 °F 30 in Calm     98 % 0 in
08:18 40.1 °F 39.6 °F 30 in Calm     98 % 0 in
08:23 41.2 °F 40.6 °F 30.1 in Calm     98 % 0 in
08:33 41.9 °F 41.4 °F 30.1 in Calm     98 % 0 in
08:38 42.3 °F 41.7 °F 30.1 in Calm     98 % 0 in
08:43 42.8 °F 42.3 °F 30.1 in Calm     98 % 0 in
08:48 43.3 °F 42.8 °F 30.1 in West 2 mph 2.9 mph 98 % 0 in
08:53 43.9 °F 43.3 °F 30.1 in Calm   2.9 mph 98 % 0 in
08:58 44.4 °F 44.1 °F 30.1 in West 5.4 mph 5.4 mph 98 % 0 in
09:03 45.1 °F 44.4 °F 30.1 in West 2.5 mph 5.4 mph 98 % 0 in
09:08 45.7 °F 45.1 °F 30.1 in WSW 4.9 mph 6 mph 98 % 0 in
09:13 46 °F 45.7 °F 30.1 in West 5.4 mph 6 mph 98 % 0 in
09:18 46.6 °F 46 °F 30.1 in WSW 5.4 mph 6 mph 98 % 0 in
09:23 47.1 °F 46.6 °F 30.1 in Calm   6 mph 98 % 0 in
09:28 47.7 °F 47.1 °F 30.1 in West 4.9 mph 6.3 mph 98 % 0 in
09:33 48.2 °F 47.5 °F 30.1 in West 2.9 mph 6.3 mph 97 % 0 in
09:38 48.7 °F 47.8 °F 30.1 in West 4.3 mph 6.3 mph 97 % 0 in
09:43 49.5 °F 48.6 °F 30.1 in West 3.4 mph 6.3 mph 97 % 0 in
09:48 49.8 °F 48.7 °F 30.1 in Calm   5.8 mph 96 % 0 in
09:53 50.4 °F 49.3 °F 30.1 in WSW 3.8 mph 3.8 mph 96 % 0 in
09:58 51.3 °F 50.2 °F 30.1 in West 3.4 mph 3.8 mph 96 % 0 in
10:03 51.6 °F 50.2 °F 30.1 in WSW 1.6 mph 3.8 mph 95 % 0 in
10:08 52.3 °F 50.9 °F 30.1 in Calm   3.1 mph 95 % 0 in
10:13 53.1 °F 51.3 °F 30.1 in Calm   1.6 mph 94 % 0 in
10:18 53.4 °F 51.4 °F 30.1 in SSW 2.7 mph 3.6 mph 93 % 0 in
10:23 54.3 °F 52.3 °F 30.1 in South 2.2 mph 3.6 mph 93 % 0 in
10:28 54.9 °F 52.3 °F 30.1 in WSW 3.1 mph 4.3 mph 91 % 0 in
10:33 55.6 °F 52.5 °F 30.1 in Calm   4.3 mph 90 % 0 in
10:38 55.9 °F 52.9 °F 30.1 in WNW 3.1 mph 4.9 mph 89 % 0 in
10:43 56.3 °F 52.2 °F 30.1 in Calm   4.9 mph 86 % 0 in
10:48 57.2 °F 53.1 °F 30.1 in Calm   3.1 mph 86 % 0 in
10:53 57.7 °F 53.2 °F 30.1 in Calm   3.8 mph 85 % 0 in
10:58 58.3 °F 53.1 °F 30.1 in Calm   5.4 mph 83 % 0 in
11:03 58.5 °F 52.3 °F 30.1 in North 4.3 mph 5.8 mph 80 % 0 in
11:08 59.2 °F 53.1 °F 30.1 in Calm   5.8 mph 80 % 0 in
11:13 60.1 °F 53.2 °F 30.1 in Calm   4.3 mph 78 % 0 in
11:18 60.4 °F 53.4 °F 30.1 in NE 3.4 mph 4 mph 78 % 0 in
11:23 59.9 °F 52.3 °F 30.1 in NE 6.3 mph 7.8 mph 76 % 0 in
11:28 59.7 °F 52.2 °F 30.1 in NNW 1.3 mph 7.8 mph 76 % 0 in
11:33 59.5 °F 51.6 °F 30.1 in NNE 5.6 mph 5.8 mph 75 % 0 in
11:38 59.9 °F 52 °F 30.2 in North 4 mph 6.3 mph 75 % 0 in
11:43 60.1 °F 51.6 °F 30.2 in North 4 mph 6.3 mph 74 % 0 in
11:48 60.1 °F 51.4 °F 30.2 in NNW 4.9 mph 6 mph 73 % 0 in
11:53 60.1 °F 51.4 °F 30.2 in NNE 4.7 mph 6.3 mph 73 % 0 in
11:58 60.1 °F 51.4 °F 30.2 in North 5.6 mph 6.3 mph 73 % 0 in
12:03 60.1 °F 51.4 °F 30.2 in NNE 6 mph 6.3 mph 73 % 0 in
12:08 60.4 °F 51.6 °F 30.2 in North 6 mph 6.3 mph 73 % 0 in
12:13 60.6 °F 52 °F 30.2 in NE 3.8 mph 6.3 mph 73 % 0 in
12:18 60.1 °F 51.1 °F 30.2 in NNE 5.8 mph 8.1 mph 72 % 0 in
12:23 60.4 °F 51.3 °F 30.2 in North 3.4 mph 8.1 mph 72 % 0 in
12:28 61.3 °F 52.2 °F 30.2 in North 2.9 mph 7.4 mph 72 % 0 in
12:33 61.5 °F 51.8 °F 30.2 in Calm   7.4 mph 70 % 0 in
12:38 62.2 °F 52 °F 30.2 in NNE 2.2 mph 5.8 mph 69 % 0 in
12:43 62.4 °F 52.2 °F 30.2 in West 2.9 mph 5.8 mph 69 % 0 in
12:48 62.4 °F 51.8 °F 30.2 in North 6.7 mph 8.1 mph 68 % 0 in
12:53 62.2 °F 51.4 °F 30.2 in NNE 3.1 mph 8.7 mph 68 % 0 in
12:58 61.5 °F 51.1 °F 30.2 in North 4.3 mph 8.7 mph 68 % 0 in
13:03 62.1 °F 50.9 °F 30.2 in North 4.9 mph 7.6 mph 67 % 0 in
13:08 61.5 °F 50.5 °F 30.2 in NE 4 mph 7.6 mph 67 % 0 in
13:13 62.2 °F 50.7 °F 30.2 in Calm   7.6 mph 66 % 0 in
13:18 62.2 °F 51.3 °F 30.2 in NNE 4.9 mph 7.4 mph 67 % 0 in
13:24 63 °F 52 °F 30.2 in NE 4.7 mph 7.4 mph 67 % 0 in
13:29 63 °F 50.9 °F 30.2 in NW 6 mph 7.8 mph 65 % 0 in
13:34 62.8 °F 50.7 °F 30.2 in North 5.6 mph 7.8 mph 65 % 0 in
13:39 63.9 °F 51.8 °F 30.2 in Calm   6.3 mph 65 % 0 in
13:44 63.9 °F 51.8 °F 30.2 in North 4 mph 4.3 mph 65 % 0 in
13:49 63.7 °F 51.6 °F 30.2 in Calm   7.6 mph 65 % 0 in
13:54 63.9 °F 50.9 °F 30.2 in North 2 mph 7.6 mph 63 % 0 in
13:59 64 °F 51.6 °F 30.2 in North 4 mph 6.5 mph 64 % 0 in
14:04 64.6 °F 51.6 °F 30.2 in NNE 6.3 mph 7.2 mph 63 % 0 in
14:09 63.7 °F 50.4 °F 30.2 in West 2.2 mph 7.6 mph 62 % 0 in
14:14 63.9 °F 50.5 °F 30.2 in WNW 2.2 mph 7.6 mph 62 % 0 in
14:19 63.9 °F 50.5 °F 30.2 in NNW 1.1 mph 6 mph 62 % 0 in
14:24 62.2 °F 48.6 °F 30.2 in Calm   6 mph 61 % 0 in
14:29 63 °F 49.6 °F 30.2 in North 3.6 mph 7.6 mph 62 % 0 in
14:34 63.9 °F 50.5 °F 30.2 in Calm   7.6 mph 62 % 0 in
14:39 63.9 °F 50 °F 30.2 in NW 2.7 mph 6 mph 61 % 0 in
14:44 64.6 °F 50.4 °F 30.2 in North 2.7 mph 8.5 mph 60 % 0 in
14:49 64.6 °F 50 °F 30.2 in NNE 3.8 mph 8.5 mph 59 % 0 in
14:54 64 °F 48.6 °F 30.2 in Calm   6.9 mph 57 % 0 in
14:59 66 °F 49.8 °F 30.2 in North 3.8 mph 6.3 mph 56 % 0 in
15:04 65.5 °F 48.4 °F 30.2 in North 3.4 mph 7.2 mph 54 % 0 in
15:09 65.8 °F 49.3 °F 30.1 in NNE 6 mph 7.6 mph 55 % 0 in
15:14 64 °F 47.1 °F 30.1 in North 4 mph 8.1 mph 54 % 0 in
15:19 63 °F 46 °F 30.1 in North 6 mph 8.1 mph 54 % 0 in
15:24 64 °F 47.7 °F 30.2 in NE 8.5 mph 8.5 mph 55 % 0 in
15:29 63.7 °F 46.6 °F 30.2 in North 4 mph 8.5 mph 54 % 0 in
15:32 64.6 °F 46.9 °F 30.2 in NNW 5.4 mph 8.5 mph 53 % 0 in
15:37 63.7 °F 46.6 °F 30.2 in WNW 2.2 mph 6.5 mph 54 % 0 in
15:42 64.8 °F 48.4 °F 30.2 in Calm   6.3 mph 55 % 0 in
15:47 65.8 °F 48.7 °F 30.2 in NE 3.4 mph 4.7 mph 54 % 0 in
15:52 66.6 °F 49.5 °F 30.2 in North 1.1 mph 6 mph 54 % 0 in
15:57 67.5 °F 49.6 °F 30.2 in North 6.3 mph 6.3 mph 53 % 0 in
16:02 67.6 °F 48.4 °F 30.2 in North 5.6 mph 7.8 mph 50 % 0 in
16:07 68.4 °F 48.9 °F 30.2 in North 4.9 mph 7.8 mph 50 % 0 in
16:12 67.6 °F 47.1 °F 30.2 in North 8.7 mph 8.9 mph 48 % 0 in
16:17 66.6 °F 46.8 °F 30.2 in North 6.3 mph 8.9 mph 49 % 0 in
16:22 64 °F 44.4 °F 30.2 in North 3.4 mph 8.5 mph 49 % 0 in
16:27 64 °F 45.1 °F 30.2 in NNW 3.4 mph 8.5 mph 50 % 0 in
16:32 65.1 °F 46 °F 30.2 in North 4.9 mph 6 mph 50 % 0 in
16:37 65.7 °F 46.6 °F 30.2 in North 5.8 mph 7.6 mph 50 % 0 in
16:42 65.3 °F 45.7 °F 30.2 in North 4.9 mph 7.6 mph 49 % 0 in
16:47 65.7 °F 46.6 °F 30.2 in NNW 8.1 mph 8.1 mph 50 % 0 in
16:52 65.1 °F 46.6 °F 30.2 in North 5.6 mph 8.1 mph 51 % 0 in
16:57 65.3 °F 47.3 °F 30.2 in North 7.6 mph 10.1 mph 52 % 0 in
17:03 65.1 °F 46.6 °F 30.2 in NNE 5.8 mph 10.1 mph 51 % 0 in
17:08 64.8 °F 45.7 °F 30.2 in North 4.7 mph 10.3 mph 50 % 0 in
17:12 64.6 °F 45.7 °F 30.2 in WNW 8.5 mph 10.7 mph 50 % 0 in
17:17 64.6 °F 45.7 °F 30.2 in North 3.4 mph 10.7 mph 50 % 0 in
17:23 64.8 °F 45.7 °F 30.2 in North 6.3 mph 8.7 mph 50 % 0 in
17:28 65.1 °F 46 °F 30.2 in NNE 8.7 mph 8.7 mph 50 % 0 in
17:33 64.2 °F 44.8 °F 30.2 in NW 5.8 mph 9.6 mph 49 % 0 in
17:38 64.2 °F 44.8 °F 30.2 in NNW 5.8 mph 9.6 mph 49 % 0 in
17:43 63.7 °F 44.1 °F 30.2 in NNE 6 mph 8.9 mph 49 % 0 in
17:48 63 °F 43.5 °F 30.2 in NW 7.6 mph 10.1 mph 49 % 0 in
17:53 63 °F 43.3 °F 30.2 in NE 6.5 mph 10.1 mph 49 % 0 in
17:58 62.8 °F 43.9 °F 30.2 in North 4.3 mph 9.6 mph 50 % 0 in
18:03 63 °F 44.4 °F 30.2 in North 5.8 mph 10.1 mph 51 % 0 in
18:08 62.4 °F 44.1 °F 30.2 in NNE 9.6 mph 10.1 mph 51 % 0 in
18:13 62.2 °F 44.2 °F 30.2 in NNE 6.5 mph 10.3 mph 52 % 0 in
18:18 62.2 °F 44.2 °F 30.2 in North 3.6 mph 10.3 mph 52 % 0 in
18:23 62.2 °F 44.4 °F 30.2 in North 3.8 mph 8.1 mph 52 % 0 in
18:28 61.9 °F 44.1 °F 30.2 in NNE 6 mph 7.8 mph 52 % 0 in
18:33 61.5 °F 43.7 °F 30.2 in NNW 6 mph 9.8 mph 52 % 0 in
18:38 61.3 °F 44.1 °F 30.2 in North 6.5 mph 9.8 mph 53 % 0 in
18:43 61 °F 43.7 °F 30.2 in NNE 6.3 mph 9.8 mph 53 % 0 in
18:48 61 °F 44.2 °F 30.2 in NNW 7.6 mph 8.7 mph 54 % 0 in
18:53 60.6 °F 43.9 °F 30.2 in NNW 6.3 mph 8.1 mph 54 % 0 in
18:58 60.1 °F 43.9 °F 30.2 in North 2.9 mph 8.5 mph 55 % 0 in
19:03 59.7 °F 44.1 °F 30.2 in North 5.4 mph 8.5 mph 56 % 0 in
19:08 59.5 °F 44.2 °F 30.2 in North 3.4 mph 7.6 mph 57 % 0 in
19:13 59.2 °F 43.9 °F 30.2 in NE 5.6 mph 8.5 mph 57 % 0 in
19:18 58.8 °F 44.1 °F 30.2 in North 2.9 mph 8.5 mph 58 % 0 in
19:23 58.8 °F 44.1 °F 30.2 in NE 6.5 mph 6.5 mph 58 % 0 in
19:28 58.3 °F 44.1 °F 30.2 in North 6 mph 8.5 mph 59 % 0 in
19:33 57.9 °F 44.1 °F 30.2 in ENE 5.6 mph 8.5 mph 60 % 0 in
19:38 57.6 °F 44.2 °F 30.2 in NNW 6.5 mph 8.1 mph 61 % 0 in
19:43 57.2 °F 43.9 °F 30.2 in NNE 4 mph 8.1 mph 61 % 0 in
19:48 56.7 °F 43.9 °F 30.2 in North 2.9 mph 7.8 mph 62 % 0 in
19:53 56.1 °F 44.1 °F 30.2 in North 3.4 mph 7.8 mph 64 % 0 in
19:58 55.8 °F 44.2 °F 30.2 in North 3.1 mph 7.8 mph 65 % 0 in
20:03 55.6 °F 44.8 °F 30.2 in North 3.1 mph 7.4 mph 67 % 0 in
20:08 55 °F 43.9 °F 30.2 in North 3.1 mph 7.4 mph 66 % 0 in
20:13 54.7 °F 44.2 °F 30.2 in North 2 mph 5.4 mph 68 % 0 in
20:18 54.1 °F 43.9 °F 30.2 in NW 3.8 mph 5.4 mph 68 % 0 in
20:23 54 °F 43.9 °F 30.2 in NNW 1.6 mph 5.8 mph 69 % 0 in
20:28 53.4 °F 44.1 °F 30.2 in North 4.3 mph 6 mph 70 % 0 in
20:33 53.1 °F 43.9 °F 30.2 in North 2.5 mph 6 mph 71 % 0 in
20:38 52.9 °F 43.7 °F 30.2 in North 1.3 mph 5.6 mph 71 % 0 in
Le Gheer Warneton
Courtoisie de Weather Underground - 2 mb

Mise a jour : 17-12-17 09:05:12
Généré par Cumulus 1.9.4 (1099)